Language: 


Des rapports , des résumés tant et plus, au choix de chacun....


Données Historiques de Météogheer
Journalier Rapport pour Janvier 16, 2018 Unitée:  Les deux    Impériale   Métrique
Suivant Jour »
Journalier Hebdomadaire Mensuel Annuel Sur mesure
  Max: Min: Moyenne:
Température: 47.8 °F /  8.8 °C 39 °F /  3.9 °C 44.1 °F /  6.7 °C
Point de rosée: 44.6 °F /  7.0 °C 32 °F /  0.0 °C 38.5 °F /  3.6 °C
Humidité: 96% 58% 80%
Vent: 27.7mph /  44.6km/h - 10.4mph /  16.8km/h
Rafales: 28.4mph /  45.7km/h - -
Vent- - WSW
Pression: 29.4 in /  996.8 hPa 29.3 in /  992.1 hPa -
Pluie: 0.02 in /  0.5 mm    
Historical Graphs
 
 
Données tabulaires pour Janvier 16, 2018
Heure Température Point de rosée Pression Vent Vent Rafales Humidité Pluie Taux (Horaire) Conditions
00:01 45 °F /  7.2 °C 42.8 °F /  6.0 °C 29.4in /  995.1hPa West 8.5mph /  13.7km/h 16.1mph /  25.9km/h 90% 0in /  0.0mm
00:07 44.8 °F /  7.1 °C 42.8 °F /  6.0 °C 29.4in /  995.1hPa WSW 10.3mph /  16.6km/h 14.3mph /  23.0km/h 90% 0in /  0.0mm
00:17 44.6 °F /  7.0 °C 42.8 °F /  6.0 °C 29.4in /  996.2hPa West 7.8mph /  12.6km/h 12.8mph /  20.6km/h 90% 0in /  0.0mm
00:25 44.4 °F /  6.9 °C 42.8 °F /  6.0 °C 29.4in /  995.1hPa WSW 10.5mph /  16.9km/h 13mph /  20.9km/h 91% 0in /  0.0mm
00:32 44.4 °F /  6.9 °C 42.8 °F /  6.0 °C 29.4in /  995.1hPa WSW 6mph /  9.7km/h 12.8mph /  20.6km/h 91% 0in /  0.0mm
00:42 44.4 °F /  6.9 °C 42.8 °F /  6.0 °C 29.4in /  994.1hPa WSW 7.8mph /  12.6km/h 12.1mph /  19.5km/h 92% 0in /  0.0mm
00:50 44.6 °F /  7.0 °C 42.8 °F /  6.0 °C 29.4in /  994.1hPa West 13mph /  20.9km/h 15.7mph /  25.3km/h 91% 0in /  0.0mm
01:03 45.1 °F /  7.3 °C 41 °F /  5.0 °C 29.4in /  995.1hPa WSW 9.6mph /  15.4km/h 17.7mph /  28.5km/h 85% 0in /  0.0mm
01:10 44.8 °F /  7.1 °C 39.2 °F /  4.0 °C 29.4in /  995.1hPa WSW 10.1mph /  16.3km/h 15.7mph /  25.3km/h 82% 0in /  0.0mm
01:22 44.6 °F /  7.0 °C 39.2 °F /  4.0 °C 29.4in /  995.1hPa West 12.1mph /  19.5km/h 15.2mph /  24.5km/h 82% 0in /  0.0mm
01:27 44.8 °F /  7.1 °C 39.2 °F /  4.0 °C 29.4in /  995.1hPa WSW 7.6mph /  12.2km/h 15.2mph /  24.5km/h 83% 0in /  0.0mm
01:34 45.1 °F /  7.3 °C 41 °F /  5.0 °C 29.4in /  995.1hPa West 19.5mph /  31.4km/h 19.9mph /  32.0km/h 84% 0in /  0.0mm
01:46 45.1 °F /  7.3 °C 41 °F /  5.0 °C 29.4in /  994.1hPa WSW 10.7mph /  17.2km/h 23mph /  37.0km/h 86% 0in /  0.0mm
02:03 44.8 °F /  7.1 °C 42.8 °F /  6.0 °C 29.4in /  995.1hPa WSW 12.5mph /  20.1km/h 16.3mph /  26.2km/h 89% 0in /  0.0mm
02:17 44.8 °F /  7.1 °C 42.8 °F /  6.0 °C 29.4in /  995.1hPa WSW 12.5mph /  20.1km/h 16.6mph /  26.7km/h 91% 0in /  0.0mm
02:34 44.2 °F /  6.8 °C 41 °F /  5.0 °C 29.4in /  994.1hPa WSW 10.5mph /  16.9km/h 15.4mph /  24.8km/h 90% 0in /  0.0mm
02:41 44.2 °F /  6.8 °C 41 °F /  5.0 °C 29.4in /  994.1hPa WSW 12.3mph /  19.8km/h 17mph /  27.4km/h 90% 0in /  0.0mm
02:49 44.1 °F /  6.7 °C 42.8 °F /  6.0 °C 29.4in /  994.1hPa WSW 12.5mph /  20.1km/h 17mph /  27.4km/h 91% 0in /  0.0mm
02:59 44.2 °F /  6.8 °C 42.8 °F /  6.0 °C 29.4in /  994.1hPa WSW 10.7mph /  17.2km/h 14.8mph /  23.8km/h 92% 0in /  0.0mm
03:06 44.2 °F /  6.8 °C 42.8 °F /  6.0 °C 29.4in /  994.1hPa SW 10.3mph /  16.6km/h 15.4mph /  24.8km/h 92% 0in /  0.0mm
03:14 43.9 °F /  6.6 °C 42.8 °F /  6.0 °C 29.4in /  994.1hPa WSW 7.4mph /  11.9km/h 14.5mph /  23.3km/h 92% 0in /  0.0mm
03:28 43.5 °F /  6.4 °C 42.8 °F /  6.0 °C 29.4in /  994.1hPa WSW 12.5mph /  20.1km/h 12.8mph /  20.6km/h 93% 0in /  0.0mm
03:39 43.5 °F /  6.4 °C 42.8 °F /  6.0 °C 29.4in /  994.1hPa WSW 12.3mph /  19.8km/h 12.8mph /  20.6km/h 94% 0in /  0.0mm
03:50 43.5 °F /  6.4 °C 42.8 °F /  6.0 °C 29.4in /  994.1hPa WSW 11.9mph /  19.1km/h 13.9mph /  22.4km/h 95% 0in /  0.0mm
03:58 43.7 °F /  6.5 °C 42.8 °F /  6.0 °C 29.3in /  993.1hPa WSW 10.3mph /  16.6km/h 13mph /  20.9km/h 95% 0in /  0.0mm
04:04 44.1 °F /  6.7 °C 42.8 °F /  6.0 °C 29.3in /  993.1hPa West 7.8mph /  12.6km/h 14.5mph /  23.3km/h 96% 0in /  0.0mm
04:11 44.2 °F /  6.8 °C 42.8 °F /  6.0 °C 29.4in /  994.1hPa WSW 7.8mph /  12.6km/h 13mph /  20.9km/h 96% 0in /  0.0mm
04:16 44.2 °F /  6.8 °C 42.8 °F /  6.0 °C 29.4in /  994.1hPa WSW 8.7mph /  14.0km/h 13mph /  20.9km/h 96% 0in /  0.0mm
04:22 44.2 °F /  6.8 °C 42.8 °F /  6.0 °C 29.4in /  994.1hPa WSW 9.4mph /  15.1km/h 13.2mph /  21.2km/h 96% 0in /  0.0mm
04:31 44.4 °F /  6.9 °C 44.6 °F /  7.0 °C 29.3in /  993.1hPa WSW 7.4mph /  11.9km/h 13mph /  20.9km/h 96% 0in /  0.0mm
04:48 44.4 °F /  6.9 °C 44.6 °F /  7.0 °C 29.3in /  993.1hPa WSW 8.7mph /  14.0km/h 11mph /  17.7km/h 96% 0in /  0.0mm
05:09 44.4 °F /  6.9 °C 44.6 °F /  7.0 °C 29.3in /  992.1hPa WSW 7.6mph /  12.2km/h 8.7mph /  14.0km/h 96% 0.01in /  0.3mm
05:22 44.4 °F /  6.9 °C 44.6 °F /  7.0 °C 29.3in /  992.1hPa WSW 10.5mph /  16.9km/h 17.7mph /  28.5km/h 96% 0.01in /  0.3mm
05:28 44.4 °F /  6.9 °C 44.6 °F /  7.0 °C 29.3in /  993.1hPa West 15.2mph /  24.5km/h 17.7mph /  28.5km/h 96% 0.01in /  0.3mm
05:50 44.4 °F /  6.9 °C 44.6 °F /  7.0 °C 29.3in /  993.1hPa WSW 10.7mph /  17.2km/h 15.4mph /  24.8km/h 96% 0.01in /  0.3mm
06:08 44.4 °F /  6.9 °C 44.6 °F /  7.0 °C 29.3in /  993.1hPa West 10.7mph /  17.2km/h 13.4mph /  21.6km/h 96% 0in /  0.0mm
06:36 44.4 °F /  6.9 °C 44.6 °F /  7.0 °C 29.3in /  993.1hPa WSW 10.5mph /  16.9km/h 16.8mph /  27.0km/h 96% 0in /  0.0mm
06:42 44.4 °F /  6.9 °C 44.6 °F /  7.0 °C 29.3in /  993.1hPa West 17.4mph /  28.0km/h 17.4mph /  28.0km/h 96% 0in /  0.0mm
06:49 44.4 °F /  6.9 °C 44.6 °F /  7.0 °C 29.3in /  993.1hPa West 8.1mph /  13.0km/h 17.4mph /  28.0km/h 96% 0in /  0.0mm
07:10 44.4 °F /  6.9 °C 44.6 °F /  7.0 °C 29.3in /  993.1hPa WSW 13.4mph /  21.6km/h 17.7mph /  28.5km/h 96% 0in /  0.0mm
07:19 45.9 °F /  7.7 °C 42.8 °F /  6.0 °C 29.3in /  993.1hPa WSW 12.3mph /  19.8km/h 17.4mph /  28.0km/h 86% 0in /  0.0mm
07:30 45.7 °F /  7.6 °C 42.8 °F /  6.0 °C 29.3in /  993.1hPa WSW 10.5mph /  16.9km/h 17mph /  27.4km/h 85% 0in /  0.0mm
07:44 45.3 °F /  7.4 °C 41 °F /  5.0 °C 29.3in /  993.1hPa West 11mph /  17.7km/h 19.2mph /  30.9km/h 84% 0in /  0.0mm
08:01 45.3 °F /  7.4 °C 41 °F /  5.0 °C 29.3in /  993.1hPa West 9.6mph /  15.4km/h 15.9mph /  25.6km/h 83% 0in /  0.0mm
08:08 45 °F /  7.2 °C 41 °F /  5.0 °C 29.3in /  993.1hPa WSW 6.5mph /  10.5km/h 14.1mph /  22.7km/h 83% 0in /  0.0mm
08:13 44.8 °F /  7.1 °C 39.2 °F /  4.0 °C 29.3in /  993.1hPa West 14.5mph /  23.3km/h 14.8mph /  23.8km/h 83% 0in /  0.0mm
08:20 44.8 °F /  7.1 °C 41 °F /  5.0 °C 29.3in /  993.1hPa West 11mph /  17.7km/h 16.3mph /  26.2km/h 84% 0in /  0.0mm
08:29 45 °F /  7.2 °C 41 °F /  5.0 °C 29.4in /  994.1hPa West 13.2mph /  21.2km/h 17mph /  27.4km/h 83% 0in /  0.0mm
08:35 44.8 °F /  7.1 °C 39.2 °F /  4.0 °C 29.4in /  994.1hPa WSW 8.5mph /  13.7km/h 15.4mph /  24.8km/h 83% 0in /  0.0mm
08:45 44.6 °F /  7.0 °C 39.2 °F /  4.0 °C 29.4in /  995.1hPa West 11mph /  17.7km/h 15.7mph /  25.3km/h 83% 0in /  0.0mm
08:59 44.1 °F /  6.7 °C 39.2 °F /  4.0 °C 29.4in /  994.1hPa WSW 10.3mph /  16.6km/h 13mph /  20.9km/h 84% 0in /  0.0mm
09:08 44.1 °F /  6.7 °C 39.2 °F /  4.0 °C 29.4in /  994.1hPa West 5.6mph /  9.0km/h 12.8mph /  20.6km/h 84% 0in /  0.0mm
09:13 43.9 °F /  6.6 °C 39.2 °F /  4.0 °C 29.4in /  995.1hPa West 8.7mph /  14.0km/h 15.4mph /  24.8km/h 84% 0in /  0.0mm
09:22 44.2 °F /  6.8 °C 41 °F /  5.0 °C 29.4in /  995.1hPa WSW 10.7mph /  17.2km/h 15.4mph /  24.8km/h 85% 0in /  0.0mm
09:28 44.2 °F /  6.8 °C 41 °F /  5.0 °C 29.4in /  995.1hPa West 8.1mph /  13.0km/h 15.4mph /  24.8km/h 85% 0in /  0.0mm
09:34 44.1 °F /  6.7 °C 41 °F /  5.0 °C 29.4in /  995.1hPa WSW 12.1mph /  19.5km/h 14.3mph /  23.0km/h 85% 0in /  0.0mm
09:48 44.6 °F /  7.0 °C 41 °F /  5.0 °C 29.4in /  995.1hPa West 13mph /  20.9km/h 17.2mph /  27.7km/h 84% 0in /  0.0mm
09:57 45 °F /  7.2 °C 39.2 °F /  4.0 °C 29.4in /  995.1hPa WSW 13mph /  20.9km/h 14.8mph /  23.8km/h 80% 0in /  0.0mm
10:09 44.8 °F /  7.1 °C 37.4 °F /  3.0 °C 29.4in /  995.1hPa WSW 17.2mph /  27.7km/h 17.7mph /  28.5km/h 78% 0in /  0.0mm
10:14 44.8 °F /  7.1 °C 37.4 °F /  3.0 °C 29.4in /  995.1hPa West 14.1mph /  22.7km/h 25.7mph /  41.4km/h 76% 0in /  0.0mm
10:26 44.8 °F /  7.1 °C 37.4 °F /  3.0 °C 29.4in /  996.2hPa WSW 10.7mph /  17.2km/h 19.9mph /  32.0km/h 76% 0in /  0.0mm
10:31 44.6 °F /  7.0 °C 37.4 °F /  3.0 °C 29.4in /  996.2hPa West 10.1mph /  16.3km/h 17.4mph /  28.0km/h 76% 0in /  0.0mm
10:36 44.6 °F /  7.0 °C 37.4 °F /  3.0 °C 29.4in /  996.2hPa WNW 13mph /  20.9km/h 15.9mph /  25.6km/h 76% 0in /  0.0mm
10:43 44.8 °F /  7.1 °C 37.4 °F /  3.0 °C 29.4in /  995.1hPa West 11.9mph /  19.1km/h 17.7mph /  28.5km/h 75% 0in /  0.0mm
10:51 45 °F /  7.2 °C 37.4 °F /  3.0 °C 29.4in /  995.1hPa WSW 6.3mph /  10.1km/h 18.1mph /  29.1km/h 75% 0in /  0.0mm
10:59 45.1 °F /  7.3 °C 37.4 °F /  3.0 °C 29.4in /  996.2hPa West 9.8mph /  15.8km/h 18.6mph /  29.9km/h 75% 0in /  0.0mm
11:12 45.3 °F /  7.4 °C 37.4 °F /  3.0 °C 29.4in /  996.2hPa SSW 10.1mph /  16.3km/h 17mph /  27.4km/h 73% 0in /  0.0mm
11:20 45.3 °F /  7.4 °C 37.4 °F /  3.0 °C 29.4in /  996.2hPa WSW 10.3mph /  16.6km/h 19.9mph /  32.0km/h 72% 0in /  0.0mm
11:29 45.3 °F /  7.4 °C 37.4 °F /  3.0 °C 29.4in /  996.8hPa West 10.7mph /  17.2km/h 18.8mph /  30.2km/h 72% 0in /  0.0mm
11:39 45.3 °F /  7.4 °C 37.4 °F /  3.0 °C 29.4in /  996.8hPa West 7.6mph /  12.2km/h 16.6mph /  26.7km/h 72% 0in /  0.0mm
11:52 45.3 °F /  7.4 °C 37.4 °F /  3.0 °C 29.4in /  996.8hPa West 3.8mph /  6.1km/h 10.7mph /  17.2km/h 72% 0in /  0.0mm
11:57 45.3 °F /  7.4 °C 37.4 °F /  3.0 °C 29.4in /  996.8hPa West 7.4mph /  11.9km/h 12.5mph /  20.1km/h 72% 0in /  0.0mm
12:07 47.8 °F /  8.8 °C 39.2 °F /  4.0 °C 29.4in /  996.8hPa WSW 7.2mph /  11.6km/h 10.7mph /  17.2km/h 69% 0in /  0.0mm
12:14 47.8 °F /  8.8 °C 39.2 °F /  4.0 °C 29.4in /  996.8hPa WSW 7.2mph /  11.6km/h 10.7mph /  17.2km/h 69% 0in /  0.0mm
12:31 47.3 °F /  8.5 °C 33.8 °F /  1.0 °C 29.4in /  996.8hPa WSW 4.3mph /  6.9km/h 17.7mph /  28.5km/h 58% 0in /  0.0mm
12:40 47.3 °F /  8.5 °C 33.8 °F /  1.0 °C 29.4in /  996.8hPa West 17.2mph /  27.7km/h 17.2mph /  27.7km/h 58% 0in /  0.0mm
12:47 47.3 °F /  8.5 °C 33.8 °F /  1.0 °C 29.4in /  996.8hPa West 27.7mph /  44.6km/h 27.7mph /  44.6km/h 58% 0in /  0.0mm
13:04 47.3 °F /  8.5 °C 33.8 °F /  1.0 °C 29.4in /  996.8hPa WSW 6mph /  9.7km/h 26.8mph /  43.1km/h 58% 0in /  0.0mm
13:15 47.3 °F /  8.5 °C 33.8 °F /  1.0 °C 29.4in /  996.2hPa West 11.2mph /  18.0km/h 22.4mph /  36.0km/h 58% 0in /  0.0mm
13:21 47.3 °F /  8.5 °C 33.8 °F /  1.0 °C 29.4in /  996.2hPa WNW 13.4mph /  21.6km/h 19mph /  30.6km/h 58% 0in /  0.0mm
13:31 46.2 °F /  7.9 °C 35.6 °F /  2.0 °C 29.4in /  996.8hPa West 17.2mph /  27.7km/h 17.2mph /  27.7km/h 66% 0in /  0.0mm
13:47 46.2 °F /  7.9 °C 35.6 °F /  2.0 °C 29.4in /  996.2hPa West 12.8mph /  20.6km/h 21mph /  33.8km/h 66% 0in /  0.0mm
13:54 46.2 °F /  7.9 °C 35.6 °F /  2.0 °C 29.4in /  996.2hPa WSW 15.7mph /  25.3km/h 24.4mph /  39.3km/h 66% 0in /  0.0mm
14:02 46.9 °F /  8.3 °C 37.4 °F /  3.0 °C 29.4in /  996.2hPa West 12.3mph /  19.8km/h 25.1mph /  40.4km/h 65% 0in /  0.0mm
14:10 46.6 °F /  8.1 °C 37.4 °F /  3.0 °C 29.4in /  996.2hPa WSW 7.8mph /  12.6km/h 22.4mph /  36.0km/h 67% 0in /  0.0mm
14:22 47.1 °F /  8.4 °C 37.4 °F /  3.0 °C 29.4in /  996.2hPa WSW 13mph /  20.9km/h 26.6mph /  42.8km/h 65% 0in /  0.0mm
14:32 47.3 °F /  8.5 °C 37.4 °F /  3.0 °C 29.4in /  995.1hPa West 11mph /  17.7km/h 23.9mph /  38.5km/h 67% 0in /  0.0mm
14:39 47.3 °F /  8.5 °C 37.4 °F /  3.0 °C 29.4in /  995.1hPa West 15.7mph /  25.3km/h 20.8mph /  33.5km/h 65% 0in /  0.0mm
14:49 47.3 °F /  8.5 °C 37.4 °F /  3.0 °C 29.4in /  995.1hPa West 19.9mph /  32.0km/h 25.1mph /  40.4km/h 67% 0in /  0.0mm
15:09 47.3 °F /  8.5 °C 35.6 °F /  2.0 °C 29.4in /  995.1hPa West 13.4mph /  21.6km/h 25.7mph /  41.4km/h 63% 0in /  0.0mm
15:21 47.3 °F /  8.5 °C 37.4 °F /  3.0 °C 29.4in /  995.1hPa West 8.1mph /  13.0km/h 17.7mph /  28.5km/h 65% 0in /  0.0mm
15:27 47.3 °F /  8.5 °C 37.4 °F /  3.0 °C 29.4in /  995.1hPa West 20.6mph /  33.1km/h 20.6mph /  33.1km/h 64% 0in /  0.0mm
15:35 47.1 °F /  8.4 °C 35.6 °F /  2.0 °C 29.4in /  995.1hPa West 14.1mph /  22.7km/h 22.8mph /  36.7km/h 63% 0in /  0.0mm
15:43 46.6 °F /  8.1 °C 35.6 °F /  2.0 °C 29.4in /  995.1hPa West 13.2mph /  21.2km/h 22.8mph /  36.7km/h 64% 0in /  0.0mm
16:09 45.5 °F /  7.5 °C 32 °F /  0.0 °C 29.4in /  996.2hPa West 13mph /  20.9km/h 28.4mph /  45.7km/h 59% 0in /  0.0mm
16:14 45.3 °F /  7.4 °C 32 °F /  0.0 °C 29.4in /  996.2hPa West 7.2mph /  11.6km/h 17.4mph /  28.0km/h 61% 0in /  0.0mm
16:27 44.8 °F /  7.1 °C 33.8 °F /  1.0 °C 29.4in /  996.2hPa WSW 11mph /  17.7km/h 15.4mph /  24.8km/h 64% 0in /  0.0mm
16:36 44.1 °F /  6.7 °C 33.8 °F /  1.0 °C 29.4in /  996.2hPa WSW 8.7mph /  14.0km/h 16.1mph /  25.9km/h 67% 0in /  0.0mm
16:56 43.3 °F /  6.3 °C 35.6 °F /  2.0 °C 29.4in /  995.1hPa West 10.5mph /  16.9km/h 14.3mph /  23.0km/h 72% 0in /  0.0mm
17:12 43.3 °F /  6.3 °C 35.6 °F /  2.0 °C 29.4in /  996.2hPa West 12.5mph /  20.1km/h 14.8mph /  23.8km/h 73% 0in /  0.0mm
17:19 43.3 °F /  6.3 °C 35.6 °F /  2.0 °C 29.4in /  996.2hPa WNW 5.8mph /  9.3km/h 17.2mph /  27.7km/h 72% 0in /  0.0mm
17:33 43.3 °F /  6.3 °C 33.8 °F /  1.0 °C 29.4in /  996.2hPa WSW 12.8mph /  20.6km/h 14.8mph /  23.8km/h 70% 0in /  0.0mm
17:47 43 °F /  6.1 °C 33.8 °F /  1.0 °C 29.4in /  995.1hPa West 10.7mph /  17.2km/h 15.7mph /  25.3km/h 70% 0in /  0.0mm
17:54 43 °F /  6.1 °C 33.8 °F /  1.0 °C 29.4in /  995.1hPa West 9.6mph /  15.4km/h 15.7mph /  25.3km/h 70% 0in /  0.0mm
18:10 42.8 °F /  6.0 °C 33.8 °F /  1.0 °C 29.4in /  995.1hPa WSW 12.5mph /  20.1km/h 15.4mph /  24.8km/h 71% 0in /  0.0mm
18:16 42.8 °F /  6.0 °C 33.8 °F /  1.0 °C 29.4in /  995.1hPa WSW 10.1mph /  16.3km/h 17.4mph /  28.0km/h 71% 0in /  0.0mm
18:23 42.6 °F /  5.9 °C 33.8 °F /  1.0 °C 29.4in /  995.1hPa West 10.3mph /  16.6km/h 19.7mph /  31.7km/h 71% 0in /  0.0mm
18:38 42.6 °F /  5.9 °C 33.8 °F /  1.0 °C 29.4in /  994.1hPa WSW 10.3mph /  16.6km/h 17.4mph /  28.0km/h 70% 0in /  0.0mm
18:45 42.6 °F /  5.9 °C 33.8 °F /  1.0 °C 29.4in /  994.1hPa West 10.1mph /  16.3km/h 17mph /  27.4km/h 70% 0in /  0.0mm
18:51 42.6 °F /  5.9 °C 33.8 °F /  1.0 °C 29.4in /  994.1hPa WSW 11mph /  17.7km/h 13.2mph /  21.2km/h 70% 0in /  0.0mm
18:58 42.4 °F /  5.8 °C 33.8 °F /  1.0 °C 29.4in /  995.1hPa West 7.8mph /  12.6km/h 13.2mph /  21.2km/h 71% 0in /  0.0mm
19:03 42.4 °F /  5.8 °C 33.8 °F /  1.0 °C 29.4in /  995.1hPa West 8.5mph /  13.7km/h 12.1mph /  19.5km/h 71% 0in /  0.0mm
19:09 42.6 °F /  5.9 °C 33.8 °F /  1.0 °C 29.4in /  995.1hPa WSW 10.3mph /  16.6km/h 13.4mph /  21.6km/h 71% 0in /  0.0mm
19:22 42.4 °F /  5.8 °C 35.6 °F /  2.0 °C 29.4in /  995.1hPa WSW 9.6mph /  15.4km/h 11mph /  17.7km/h 72% 0in /  0.0mm
19:28 42.4 °F /  5.8 °C 35.6 °F /  2.0 °C 29.4in /  995.1hPa West 8.7mph /  14.0km/h 13mph /  20.9km/h 73% 0in /  0.0mm
19:34 42.4 °F /  5.8 °C 35.6 °F /  2.0 °C 29.4in /  995.1hPa WSW 9.8mph /  15.8km/h 13mph /  20.9km/h 73% 0in /  0.0mm
19:40 42.4 °F /  5.8 °C 35.6 °F /  2.0 °C 29.4in /  995.1hPa West 8.1mph /  13.0km/h 12.8mph /  20.6km/h 73% 0in /  0.0mm
19:45 42.3 °F /  5.7 °C 35.6 °F /  2.0 °C 29.4in /  995.1hPa WSW 6mph /  9.7km/h 11.2mph /  18.0km/h 74% 0in /  0.0mm
19:50 42.1 °F /  5.6 °C 35.6 °F /  2.0 °C 29.4in /  995.1hPa WSW 5.6mph /  9.0km/h 8.7mph /  14.0km/h 74% 0in /  0.0mm
19:57 41.9 °F /  5.5 °C 35.6 °F /  2.0 °C 29.4in /  995.1hPa WSW 6mph /  9.7km/h 7.8mph /  12.6km/h 75% 0in /  0.0mm
20:16 42.3 °F /  5.7 °C 35.6 °F /  2.0 °C 29.4in /  995.1hPa WSW 12.3mph /  19.8km/h 16.3mph /  26.2km/h 77% 0in /  0.0mm
20:28 42.1 °F /  5.6 °C 35.6 °F /  2.0 °C 29.4in /  995.1hPa WSW 7.2mph /  11.6km/h 11.2mph /  18.0km/h 78% 0in /  0.0mm
20:34 41.9 °F /  5.5 °C 35.6 °F /  2.0 °C 29.4in /  995.1hPa WSW 13.6mph /  21.9km/h 13.6mph /  21.9km/h 78% 0in /  0.0mm
20:41 41.7 °F /  5.4 °C 35.6 °F /  2.0 °C 29.4in /  994.1hPa WSW 10.5mph /  16.9km/h 13.6mph /  21.9km/h 78% 0in /  0.0mm
20:47 41.7 °F /  5.4 °C 35.6 °F /  2.0 °C 29.4in /  994.1hPa WSW 10.5mph /  16.9km/h 13mph /  20.9km/h 78% 0in /  0.0mm
20:52 41.7 °F /  5.4 °C 35.6 °F /  2.0 °C 29.4in /  994.1hPa WSW 10.7mph /  17.2km/h 15.2mph /  24.5km/h 78% 0in /  0.0mm
21:04 41.9 °F /  5.5 °C 37.4 °F /  3.0 °C 29.4in /  995.1hPa WSW 8.5mph /  13.7km/h 16.1mph /  25.9km/h 79% 0in /  0.0mm
21:12 41.9 °F /  5.5 °C 37.4 °F /  3.0 °C 29.4in /  995.1hPa WSW 7.8mph /  12.6km/h 13mph /  20.9km/h 80% 0in /  0.0mm
21:24 41.9 °F /  5.5 °C 37.4 °F /  3.0 °C 29.4in /  995.1hPa West 16.8mph /  27.0km/h 21.3mph /  34.3km/h 84% 0in /  0.0mm
21:37 41.9 °F /  5.5 °C 37.4 °F /  3.0 °C 29.4in /  994.1hPa WSW 7.6mph /  12.2km/h 23.7mph /  38.1km/h 84% 0in /  0.0mm
21:45 41.9 °F /  5.5 °C 37.4 °F /  3.0 °C 29.4in /  995.1hPa WSW 8.7mph /  14.0km/h 15.2mph /  24.5km/h 84% 0in /  0.0mm
21:56 41.9 °F /  5.5 °C 37.4 °F /  3.0 °C 29.4in /  995.1hPa WSW 8.7mph /  14.0km/h 13.2mph /  21.2km/h 84% 0.01in /  0.3mm
22:01 41.9 °F /  5.5 °C 37.4 °F /  3.0 °C 29.4in /  995.1hPa West 6mph /  9.7km/h 13mph /  20.9km/h 84% 0.01in /  0.3mm
22:07 41.9 °F /  5.5 °C 37.4 °F /  3.0 °C 29.4in /  995.1hPa Calm   7.8mph /  12.6km/h 84% 0.01in /  0.3mm
22:21 41.9 °F /  5.5 °C 37.4 °F /  3.0 °C 29.4in /  994.1hPa SW 5.6mph /  9.0km/h 7.6mph /  12.2km/h 84% 0.01in /  0.3mm
22:35 39 °F /  3.9 °C 37.4 °F /  3.0 °C 29.4in /  994.1hPa SSW 6.5mph /  10.5km/h 7.8mph /  12.6km/h 90% 0.01in /  0.3mm
22:48 39 °F /  3.9 °C 37.4 °F /  3.0 °C 29.4in /  994.1hPa SW 8.5mph /  13.7km/h 10.5mph /  16.9km/h 90% 0.01in /  0.3mm
23:03 39 °F /  3.9 °C 37.4 °F /  3.0 °C 29.4in /  994.1hPa SW 5.4mph /  8.7km/h 8.7mph /  14.0km/h 90% 0in /  0.0mm
23:10 39 °F /  3.9 °C 37.4 °F /  3.0 °C 29.4in /  994.1hPa WSW 6mph /  9.7km/h 10.3mph /  16.6km/h 90% 0in /  0.0mm
23:15 39 °F /  3.9 °C 37.4 °F /  3.0 °C 29.4in /  994.1hPa WSW 6.9mph /  11.1km/h 12.1mph /  19.5km/h 90% 0in /  0.0mm
23:27 39 °F /  3.9 °C 37.4 °F /  3.0 °C 29.4in /  994.1hPa West 10.5mph /  16.9km/h 15.9mph /  25.6km/h 90% 0in /  0.0mm
23:32 39.6 °F /  4.2 °C 39.2 °F /  4.0 °C 29.4in /  994.1hPa West 11.2mph /  18.0km/h 15.9mph /  25.6km/h 96% 0in /  0.0mm
23:41 39.6 °F /  4.2 °C 37.4 °F /  3.0 °C 29.4in /  994.1hPa West 8.9mph /  14.3km/h 13.6mph /  21.9km/h 94% 0in /  0.0mm
23:55 39.6 °F /  4.2 °C 37.4 °F /  3.0 °C 29.4in /  994.1hPa West 12.8mph /  20.6km/h 15.4mph /  24.8km/h 94% 0in /  0.0mm
Données Historique de Météo Turbie

Mise a jour : 20/05/2018 16:14:12
Généré par Cumulus 1.9.4 (1099)